sensor_id;sensor_type;location;lat;lon;timestamp;pressure;altitude;pressure_sealevel;temperature;humidity
55217;BME280;41086;46.736;15.666;2024-02-23T00:01:08;96904.47;;;13.72;56.87
55217;BME280;41086;46.736;15.666;2024-02-23T00:03:37;96934.66;;;14.22;56.19
55217;BME280;41086;46.736;15.666;2024-02-23T00:06:04;96925.19;;;14.11;56.30
55217;BME280;41086;46.736;15.666;2024-02-23T00:08:31;96940.13;;;13.80;56.62
55217;BME280;41086;46.736;15.666;2024-02-23T00:10:58;96920.19;;;14.16;55.76
55217;BME280;41086;46.736;15.666;2024-02-23T00:13:25;96935.19;;;14.42;55.04
55217;BME280;41086;46.736;15.666;2024-02-23T00:15:51;96927.53;;;14.14;55.37
55217;BME280;41086;46.736;15.666;2024-02-23T00:18:18;96922.53;;;14.19;55.83
55217;BME280;41086;46.736;15.666;2024-02-23T00:20:46;96922.84;;;14.25;55.26
55217;BME280;41086;46.736;15.666;2024-02-23T00:23:13;96927.19;;;14.09;55.85
55217;BME280;41086;46.736;15.666;2024-02-23T00:25:40;96927.00;;;14.27;55.66
55217;BME280;41086;46.736;15.666;2024-02-23T00:28:07;96924.19;;;14.12;55.63
55217;BME280;41086;46.736;15.666;2024-02-23T00:30:34;96931.34;;;13.95;56.75
55217;BME280;41086;46.736;15.666;2024-02-23T00:33:01;96919.19;;;14.09;57.05
55217;BME280;41086;46.736;15.666;2024-02-23T00:35:28;96907.97;;;13.73;57.72
55217;BME280;41086;46.736;15.666;2024-02-23T00:37:55;96900.53;;;13.93;58.16
55217;BME280;41086;46.736;15.666;2024-02-23T00:40:22;96915.66;;;13.76;59.06
55217;BME280;41086;46.736;15.666;2024-02-23T00:42:50;96910.97;;;13.78;59.15
55217;BME280;41086;46.736;15.666;2024-02-23T00:45:16;96906.34;;;13.80;57.54
55217;BME280;41086;46.736;15.666;2024-02-23T00:47:43;96918.50;;;13.91;57.58
55217;BME280;41086;46.736;15.666;2024-02-23T00:50:11;96909.84;;;14.13;56.74
55217;BME280;41086;46.736;15.666;2024-02-23T00:52:38;96923.81;;;13.91;56.31
55217;BME280;41086;46.736;15.666;2024-02-23T00:55:05;96915.00;;;13.82;56.49
55217;BME280;41086;46.736;15.666;2024-02-23T00:57:32;96930.84;;;14.25;55.78
55217;BME280;41086;46.736;15.666;2024-02-23T00:59:58;96927.88;;;14.11;55.77
55217;BME280;41086;46.736;15.666;2024-02-23T01:02:25;96937.66;;;14.03;55.52
55217;BME280;41086;46.736;15.666;2024-02-23T01:04:52;96943.84;;;14.11;55.42
55217;BME280;41086;46.736;15.666;2024-02-23T01:07:23;96941.00;;;14.21;54.84
55217;BME280;41086;46.736;15.666;2024-02-23T01:09:50;96935.78;;;13.87;55.35
55217;BME280;41086;46.736;15.666;2024-02-23T01:12:17;96939.69;;;14.09;54.68
55217;BME280;41086;46.736;15.666;2024-02-23T01:14:44;96944.81;;;14.10;54.51
55217;BME280;41086;46.736;15.666;2024-02-23T01:17:11;96938.97;;;13.90;54.84
55217;BME280;41086;46.736;15.666;2024-02-23T01:19:38;96940.16;;;13.96;55.87
55217;BME280;41086;46.736;15.666;2024-02-23T01:22:04;96941.97;;;13.87;55.78
55217;BME280;41086;46.736;15.666;2024-02-23T01:24:31;96940.25;;;13.70;56.33
55217;BME280;41086;46.736;15.666;2024-02-23T01:26:58;96937.81;;;13.93;55.46
55217;BME280;41086;46.736;15.666;2024-02-23T01:29:26;96945.31;;;14.14;54.63
55217;BME280;41086;46.736;15.666;2024-02-23T01:31:53;96941.63;;;13.90;53.98
55217;BME280;41086;46.736;15.666;2024-02-23T01:34:23;96939.47;;;13.86;53.31
55217;BME280;41086;46.736;15.666;2024-02-23T01:36:50;96947.47;;;14.02;53.53
55217;BME280;41086;46.736;15.666;2024-02-23T01:39:17;96947.78;;;13.91;53.45
55217;BME280;41086;46.736;15.666;2024-02-23T01:41:43;96958.16;;;14.10;53.12
55217;BME280;41086;46.736;15.666;2024-02-23T01:44:11;96953.94;;;13.91;53.49
55217;BME280;41086;46.736;15.666;2024-02-23T01:46:38;96943.16;;;14.01;52.26
55217;BME280;41086;46.736;15.666;2024-02-23T01:49:05;96944.50;;;14.13;51.88
55217;BME280;41086;46.736;15.666;2024-02-23T01:51:34;96941.81;;;14.05;52.04
55217;BME280;41086;46.736;15.666;2024-02-23T01:54:01;96942.00;;;13.95;52.25
55217;BME280;41086;46.736;15.666;2024-02-23T01:56:29;96943.50;;;13.98;52.27
55217;BME280;41086;46.736;15.666;2024-02-23T01:58:57;96935.84;;;14.11;51.52
55217;BME280;41086;46.736;15.666;2024-02-23T02:01:24;96942.00;;;14.20;51.29
55217;BME280;41086;46.736;15.666;2024-02-23T02:03:51;96946.97;;;13.99;51.64
55217;BME280;41086;46.736;15.666;2024-02-23T02:06:18;96939.97;;;13.97;51.55
55217;BME280;41086;46.736;15.666;2024-02-23T02:08:45;96931.50;;;14.27;50.64
55217;BME280;41086;46.736;15.666;2024-02-23T02:11:12;96933.44;;;13.84;51.46
55217;BME280;41086;46.736;15.666;2024-02-23T02:13:39;96922.84;;;14.00;51.45
55217;BME280;41086;46.736;15.666;2024-02-23T02:16:06;96940.44;;;13.77;51.72
55217;BME280;41086;46.736;15.666;2024-02-23T02:18:33;96930.94;;;13.74;52.15
55217;BME280;41086;46.736;15.666;2024-02-23T02:20:59;96926.66;;;14.06;51.12
55217;BME280;41086;46.736;15.666;2024-02-23T02:23:27;96913.03;;;13.92;51.09
55217;BME280;41086;46.736;15.666;2024-02-23T02:25:57;96929.50;;;13.96;51.46
55217;BME280;41086;46.736;15.666;2024-02-23T02:28:25;96924.47;;;13.68;51.96
55217;BME280;41086;46.736;15.666;2024-02-23T02:30:53;96922.81;;;13.84;51.26
55217;BME280;41086;46.736;15.666;2024-02-23T02:33:20;96926.19;;;14.10;51.22
55217;BME280;41086;46.736;15.666;2024-02-23T02:35:48;96913.69;;;14.27;50.48
55217;BME280;41086;46.736;15.666;2024-02-23T02:38:16;96917.69;;;14.23;50.56
55217;BME280;41086;46.736;15.666;2024-02-23T02:40:43;96918.53;;;14.15;50.06
55217;BME280;41086;46.736;15.666;2024-02-23T02:43:10;96908.31;;;13.70;51.48
55217;BME280;41086;46.736;15.666;2024-02-23T02:45:37;96924.66;;;14.00;51.02
55217;BME280;41086;46.736;15.666;2024-02-23T02:48:04;96920.00;;;13.93;51.30
55217;BME280;41086;46.736;15.666;2024-02-23T02:50:31;96911.22;;;14.17;50.53
55217;BME280;41086;46.736;15.666;2024-02-23T02:52:58;96913.66;;;13.78;51.52
55217;BME280;41086;46.736;15.666;2024-02-23T02:55:25;96920.09;;;13.67;51.67
55217;BME280;41086;46.736;15.666;2024-02-23T02:57:52;96917.81;;;13.89;51.67
55217;BME280;41086;46.736;15.666;2024-02-23T03:00:18;96910.94;;;13.62;52.11
55217;BME280;41086;46.736;15.666;2024-02-23T03:02:45;96908.91;;;13.47;52.86
55217;BME280;41086;46.736;15.666;2024-02-23T03:05:12;96912.44;;;13.64;51.50
55217;BME280;41086;46.736;15.666;2024-02-23T03:07:39;96915.34;;;13.87;51.75
55217;BME280;41086;46.736;15.666;2024-02-23T03:10:06;96920.84;;;13.94;51.22
55217;BME280;41086;46.736;15.666;2024-02-23T03:12:33;96906.03;;;14.00;51.07
55217;BME280;41086;46.736;15.666;2024-02-23T03:15:01;96897.69;;;14.03;51.13
55217;BME280;41086;46.736;15.666;2024-02-23T03:17:29;96913.03;;;14.25;50.43
55217;BME280;41086;46.736;15.666;2024-02-23T03:19:56;96907.53;;;13.35;53.17
55217;BME280;41086;46.736;15.666;2024-02-23T03:22:24;96899.72;;;13.92;52.05
55217;BME280;41086;46.736;15.666;2024-02-23T03:24:51;96910.53;;;13.99;51.67
55217;BME280;41086;46.736;15.666;2024-02-23T03:27:19;96904.03;;;13.93;51.45
55217;BME280;41086;46.736;15.666;2024-02-23T03:29:46;96918.19;;;14.02;51.28
55217;BME280;41086;46.736;15.666;2024-02-23T03:32:13;96918.00;;;13.87;51.74
55217;BME280;41086;46.736;15.666;2024-02-23T03:34:40;96922.00;;;14.08;51.87
55217;BME280;41086;46.736;15.666;2024-02-23T03:37:07;96921.34;;;14.06;52.05
55217;BME280;41086;46.736;15.666;2024-02-23T03:39:34;96918.97;;;13.78;51.98
55217;BME280;41086;46.736;15.666;2024-02-23T03:42:01;96931.34;;;13.95;52.00
55217;BME280;41086;46.736;15.666;2024-02-23T03:44:27;96927.81;;;14.03;51.83
55217;BME280;41086;46.736;15.666;2024-02-23T03:46:54;96927.44;;;13.65;52.21
55217;BME280;41086;46.736;15.666;2024-02-23T03:49:21;96936.28;;;13.74;52.27
55217;BME280;41086;46.736;15.666;2024-02-23T03:51:48;96937.59;;;13.70;52.30
55217;BME280;41086;46.736;15.666;2024-02-23T03:54:15;96940.63;;;13.83;51.29
55217;BME280;41086;46.736;15.666;2024-02-23T03:56:42;96931.75;;;13.66;51.85
55217;BME280;41086;46.736;15.666;2024-02-23T03:59:09;96947.81;;;13.99;51.29
55217;BME280;41086;46.736;15.666;2024-02-23T04:01:37;96938.97;;;13.82;52.18
55217;BME280;41086;46.736;15.666;2024-02-23T04:04:04;96939.31;;;13.95;51.22
55217;BME280;41086;46.736;15.666;2024-02-23T04:06:32;96934.44;;;13.66;51.74
55217;BME280;41086;46.736;15.666;2024-02-23T04:08:59;96946.19;;;13.56;52.66
55217;BME280;41086;46.736;15.666;2024-02-23T04:11:26;96940.13;;;13.80;51.21
55217;BME280;41086;46.736;15.666;2024-02-23T04:13:53;96947.16;;;14.05;50.47
55217;BME280;41086;46.736;15.666;2024-02-23T04:16:23;96950.47;;;13.91;51.09
55217;BME280;41086;46.736;15.666;2024-02-23T04:18:50;96944.00;;;13.51;51.33
55217;BME280;41086;46.736;15.666;2024-02-23T04:21:17;96941.25;;;13.26;53.01
55217;BME280;41086;46.736;15.666;2024-02-23T04:23:44;96958.50;;;13.57;51.89
55217;BME280;41086;46.736;15.666;2024-02-23T04:26:11;96943.75;;;13.70;51.01
55217;BME280;41086;46.736;15.666;2024-02-23T04:28:41;96953.44;;;13.88;51.02
55217;BME280;41086;46.736;15.666;2024-02-23T04:31:09;96947.63;;;13.84;51.15
55217;BME280;41086;46.736;15.666;2024-02-23T04:33:37;96951.75;;;13.87;50.88
55217;BME280;41086;46.736;15.666;2024-02-23T04:36:04;96964.75;;;13.73;51.18
55217;BME280;41086;46.736;15.666;2024-02-23T04:38:32;96957.56;;;13.66;51.85
55217;BME280;41086;46.736;15.666;2024-02-23T04:41:03;96970.56;;;13.77;51.88
55217;BME280;41086;46.736;15.666;2024-02-23T04:43:31;96965.97;;;13.95;51.17
55217;BME280;41086;46.736;15.666;2024-02-23T04:45:58;96959.97;;;14.02;51.01
55217;BME280;41086;46.736;15.666;2024-02-23T04:48:25;96969.09;;;13.91;51.36
55217;BME280;41086;46.736;15.666;2024-02-23T04:50:52;96964.09;;;13.80;51.32
55217;BME280;41086;46.736;15.666;2024-02-23T04:53:18;96967.16;;;13.59;52.12
55217;BME280;41086;46.736;15.666;2024-02-23T04:55:46;96976.16;;;13.58;52.64
55217;BME280;41086;46.736;15.666;2024-02-23T04:58:12;96965.72;;;13.81;52.22
55217;BME280;41086;46.736;15.666;2024-02-23T05:00:40;96966.72;;;13.71;52.42
55217;BME280;41086;46.736;15.666;2024-02-23T05:03:07;96971.13;;;14.05;51.41
55217;BME280;41086;46.736;15.666;2024-02-23T05:05:38;96967.28;;;14.00;51.51
55217;BME280;41086;46.736;15.666;2024-02-23T05:08:05;96961.81;;;14.09;51.30
55217;BME280;41086;46.736;15.666;2024-02-23T05:10:31;96968.94;;;13.84;52.11
55217;BME280;41086;46.736;15.666;2024-02-23T05:12:58;96964.94;;;13.96;51.64
55217;BME280;41086;46.736;15.666;2024-02-23T05:15:25;96960.00;;;14.18;51.17
55217;BME280;41086;46.736;15.666;2024-02-23T05:17:52;96963.09;;;13.97;51.37
55217;BME280;41086;46.736;15.666;2024-02-23T05:20:18;96962.28;;;13.96;51.85
55217;BME280;41086;46.736;15.666;2024-02-23T05:22:45;96974.03;;;13.69;54.15
55217;BME280;41086;46.736;15.666;2024-02-23T05:25:12;96974.03;;;13.35;56.67
55217;BME280;41086;46.736;15.666;2024-02-23T05:27:39;96975.72;;;13.10;58.46
55217;BME280;41086;46.736;15.666;2024-02-23T05:30:06;96977.25;;;13.39;57.52
55217;BME280;41086;46.736;15.666;2024-02-23T05:32:33;96977.56;;;13.36;58.04
55217;BME280;41086;46.736;15.666;2024-02-23T05:35:00;96988.03;;;13.37;58.22
55217;BME280;41086;46.736;15.666;2024-02-23T05:37:27;96986.25;;;13.20;58.41
55217;BME280;41086;46.736;15.666;2024-02-23T05:39:54;96977.66;;;13.26;57.98
55217;BME280;41086;46.736;15.666;2024-02-23T05:42:21;96977.50;;;13.01;59.02
55217;BME280;41086;46.736;15.666;2024-02-23T05:44:47;96960.34;;;12.96;59.68
55217;BME280;41086;46.736;15.666;2024-02-23T05:47:17;96979.16;;;13.02;60.37
55217;BME280;41086;46.736;15.666;2024-02-23T05:49:44;96979.56;;;13.16;60.05
55217;BME280;41086;46.736;15.666;2024-02-23T05:52:11;96972.13;;;12.93;60.27
55217;BME280;41086;46.736;15.666;2024-02-23T05:54:37;96980.31;;;13.00;60.34
55217;BME280;41086;46.736;15.666;2024-02-23T05:57:04;96974.38;;;13.06;60.49
55217;BME280;41086;46.736;15.666;2024-02-23T05:59:31;96981.38;;;13.07;59.98
55217;BME280;41086;46.736;15.666;2024-02-23T06:01:58;96981.44;;;12.97;60.47
55217;BME280;41086;46.736;15.666;2024-02-23T06:04:25;96979.06;;;12.86;61.40
55217;BME280;41086;46.736;15.666;2024-02-23T06:06:53;96982.81;;;12.75;62.18
55217;BME280;41086;46.736;15.666;2024-02-23T06:09:21;96984.81;;;12.73;62.81
55217;BME280;41086;46.736;15.666;2024-02-23T06:11:48;96997.13;;;12.56;63.83
55217;BME280;41086;46.736;15.666;2024-02-23T06:14:15;97007.69;;;12.48;64.23
55217;BME280;41086;46.736;15.666;2024-02-23T06:16:42;97004.81;;;12.59;64.10
55217;BME280;41086;46.736;15.666;2024-02-23T06:19:08;96992.81;;;12.55;64.71
55217;BME280;41086;46.736;15.666;2024-02-23T06:21:35;96989.81;;;12.58;64.99
55217;BME280;41086;46.736;15.666;2024-02-23T06:24:03;96986.53;;;12.38;65.88
55217;BME280;41086;46.736;15.666;2024-02-23T06:26:31;96993.59;;;12.30;66.18
55217;BME280;41086;46.736;15.666;2024-02-23T06:28:58;96990.22;;;12.46;66.57
55217;BME280;41086;46.736;15.666;2024-02-23T06:31:25;96988.56;;;12.45;65.51
55217;BME280;41086;46.736;15.666;2024-02-23T06:33:52;96999.69;;;12.66;64.96
55217;BME280;41086;46.736;15.666;2024-02-23T06:36:19;96991.16;;;12.80;64.36
55217;BME280;41086;46.736;15.666;2024-02-23T06:38:46;96997.06;;;12.92;63.39
55217;BME280;41086;46.736;15.666;2024-02-23T06:41:12;96992.81;;;13.07;62.71
55217;BME280;41086;46.736;15.666;2024-02-23T06:43:39;96989.34;;;13.07;62.57
55217;BME280;41086;46.736;15.666;2024-02-23T06:46:07;96993.66;;;13.08;63.16
55217;BME280;41086;46.736;15.666;2024-02-23T06:48:38;97001.06;;;12.96;64.25
55217;BME280;41086;46.736;15.666;2024-02-23T06:51:05;97009.63;;;12.82;65.12
55217;BME280;41086;46.736;15.666;2024-02-23T06:53:36;97015.44;;;12.41;67.80
55217;BME280;41086;46.736;15.666;2024-02-23T06:56:03;97015.94;;;12.09;70.14
55217;BME280;41086;46.736;15.666;2024-02-23T06:58:30;97013.06;;;12.03;71.32
55217;BME280;41086;46.736;15.666;2024-02-23T07:00:57;97008.34;;;11.96;72.48
55217;BME280;41086;46.736;15.666;2024-02-23T07:03:24;97013.00;;;12.12;71.83
55217;BME280;41086;46.736;15.666;2024-02-23T07:05:51;97018.31;;;12.30;71.55
55217;BME280;41086;46.736;15.666;2024-02-23T07:08:18;97010.34;;;12.48;70.39
55217;BME280;41086;46.736;15.666;2024-02-23T07:10:45;97011.47;;;12.10;71.77
55217;BME280;41086;46.736;15.666;2024-02-23T07:13:12;97007.50;;;11.96;72.91
55217;BME280;41086;46.736;15.666;2024-02-23T07:15:39;97015.91;;;12.19;72.06
55217;BME280;41086;46.736;15.666;2024-02-23T07:18:06;97010.72;;;12.53;70.82
55217;BME280;41086;46.736;15.666;2024-02-23T07:20:36;97013.59;;;12.60;70.37
55217;BME280;41086;46.736;15.666;2024-02-23T07:23:04;97027.59;;;12.88;69.05
55217;BME280;41086;46.736;15.666;2024-02-23T07:25:31;97024.22;;;13.04;67.53
55217;BME280;41086;46.736;15.666;2024-02-23T07:27:58;97008.59;;;13.01;66.80
55217;BME280;41086;46.736;15.666;2024-02-23T07:30:25;97011.25;;;13.01;67.37
55217;BME280;41086;46.736;15.666;2024-02-23T07:32:52;96997.72;;;12.94;67.53
55217;BME280;41086;46.736;15.666;2024-02-23T07:35:21;97001.91;;;12.97;67.55
55217;BME280;41086;46.736;15.666;2024-02-23T07:37:48;97011.38;;;12.99;66.97
55217;BME280;41086;46.736;15.666;2024-02-23T07:40:15;97006.38;;;12.96;67.58
55217;BME280;41086;46.736;15.666;2024-02-23T07:42:46;97014.75;;;12.83;67.93
55217;BME280;41086;46.736;15.666;2024-02-23T07:45:13;97022.41;;;12.78;67.86
55217;BME280;41086;46.736;15.666;2024-02-23T07:47:40;97025.28;;;13.11;66.13
55217;BME280;41086;46.736;15.666;2024-02-23T07:50:08;97026.44;;;13.35;65.10
55217;BME280;41086;46.736;15.666;2024-02-23T07:52:35;97028.22;;;13.08;66.22
55217;BME280;41086;46.736;15.666;2024-02-23T07:55:02;97030.63;;;12.93;66.05
55217;BME280;41086;46.736;15.666;2024-02-23T07:57:32;97034.78;;;13.14;65.03
55217;BME280;41086;46.736;15.666;2024-02-23T08:00:00;97046.66;;;13.01;65.21
55217;BME280;41086;46.736;15.666;2024-02-23T08:02:37;97041.31;;;13.01;65.23
55217;BME280;41086;46.736;15.666;2024-02-23T08:05:06;97020.19;;;13.00;65.47
55217;BME280;41086;46.736;15.666;2024-02-23T08:07:34;97034.69;;;13.05;65.55
55217;BME280;41086;46.736;15.666;2024-02-23T08:10:01;97043.41;;;13.16;65.10
55217;BME280;41086;46.736;15.666;2024-02-23T08:12:29;97039.59;;;13.18;65.31
55217;BME280;41086;46.736;15.666;2024-02-23T08:14:56;97037.28;;;13.41;63.95
55217;BME280;41086;46.736;15.666;2024-02-23T08:17:23;97028.59;;;13.65;63.59
55217;BME280;41086;46.736;15.666;2024-02-23T08:19:51;97037.56;;;13.64;63.04
55217;BME280;41086;46.736;15.666;2024-02-23T08:22:18;97024.91;;;13.58;62.90
55217;BME280;41086;46.736;15.666;2024-02-23T08:24:45;97023.56;;;13.62;63.06
55217;BME280;41086;46.736;15.666;2024-02-23T08:27:12;97037.03;;;13.26;64.24
55217;BME280;41086;46.736;15.666;2024-02-23T08:29:39;97038.00;;;13.25;64.22
55217;BME280;41086;46.736;15.666;2024-02-23T08:32:06;97041.28;;;13.19;64.39
55217;BME280;41086;46.736;15.666;2024-02-23T08:34:33;97035.44;;;13.16;64.59
55217;BME280;41086;46.736;15.666;2024-02-23T08:37:01;97028.97;;;12.92;65.16
55217;BME280;41086;46.736;15.666;2024-02-23T08:39:28;97031.38;;;13.03;65.18
55217;BME280;41086;46.736;15.666;2024-02-23T08:41:55;97016.63;;;13.35;63.66
55217;BME280;41086;46.736;15.666;2024-02-23T08:44:22;97024.59;;;13.35;63.54
55217;BME280;41086;46.736;15.666;2024-02-23T08:46:48;97028.72;;;13.29;64.44
55217;BME280;41086;46.736;15.666;2024-02-23T08:49:15;97030.66;;;13.45;62.92
55217;BME280;41086;46.736;15.666;2024-02-23T08:51:42;97025.50;;;13.44;62.21
55217;BME280;41086;46.736;15.666;2024-02-23T08:54:09;97025.72;;;13.59;62.54
55217;BME280;41086;46.736;15.666;2024-02-23T08:56:39;97020.94;;;13.70;61.74
55217;BME280;41086;46.736;15.666;2024-02-23T08:59:09;97035.69;;;13.91;62.10
55217;BME280;41086;46.736;15.666;2024-02-23T09:01:36;97021.25;;;13.67;62.11
55217;BME280;41086;46.736;15.666;2024-02-23T09:04:03;97014.59;;;13.29;63.22
55217;BME280;41086;46.736;15.666;2024-02-23T09:06:31;97031.84;;;13.51;63.49
55217;BME280;41086;46.736;15.666;2024-02-23T09:09:05;97022.16;;;13.42;63.17
55217;BME280;41086;46.736;15.666;2024-02-23T09:11:32;97029.28;;;13.75;62.46
55217;BME280;41086;46.736;15.666;2024-02-23T09:13:59;97023.41;;;13.29;63.23
55217;BME280;41086;46.736;15.666;2024-02-23T09:16:26;97034.19;;;13.54;62.43
55217;BME280;41086;46.736;15.666;2024-02-23T09:18:53;97021.09;;;13.61;61.80
55217;BME280;41086;46.736;15.666;2024-02-23T09:21:20;97020.28;;;13.68;61.19
55217;BME280;41086;46.736;15.666;2024-02-23T09:23:47;97020.06;;;13.96;59.78
55217;BME280;41086;46.736;15.666;2024-02-23T09:26:13;97037.34;;;13.92;59.12
55217;BME280;41086;46.736;15.666;2024-02-23T09:28:40;97037.88;;;13.95;58.83
55217;BME280;41086;46.736;15.666;2024-02-23T09:31:08;97052.38;;;14.09;58.59
55217;BME280;41086;46.736;15.666;2024-02-23T09:33:35;97035.56;;;14.01;58.55
55217;BME280;41086;46.736;15.666;2024-02-23T09:36:02;97046.69;;;13.96;58.46
55217;BME280;41086;46.736;15.666;2024-02-23T09:38:29;97048.91;;;14.09;57.77
55217;BME280;41086;46.736;15.666;2024-02-23T09:40:59;97037.88;;;13.95;58.63
55217;BME280;41086;46.736;15.666;2024-02-23T09:43:29;97035.84;;;13.97;58.62
55217;BME280;41086;46.736;15.666;2024-02-23T09:45:59;97029.00;;;13.87;59.46
55217;BME280;41086;46.736;15.666;2024-02-23T09:48:26;97031.84;;;13.93;58.90
55217;BME280;41086;46.736;15.666;2024-02-23T09:50:55;97044.69;;;13.98;59.25
55217;BME280;41086;46.736;15.666;2024-02-23T09:53:24;97047.34;;;13.90;59.31
55217;BME280;41086;46.736;15.666;2024-02-23T09:55:51;97049.53;;;14.03;59.14
55217;BME280;41086;46.736;15.666;2024-02-23T09:58:20;97035.84;;;13.97;59.71
55217;BME280;41086;46.736;15.666;2024-02-23T10:00:48;97042.53;;;14.02;59.55
55217;BME280;41086;46.736;15.666;2024-02-23T10:03:16;97051.84;;;14.06;59.03
55217;BME280;41086;46.736;15.666;2024-02-23T10:05:43;97058.09;;;14.23;58.51
55217;BME280;41086;46.736;15.666;2024-02-23T10:08:12;97051.06;;;14.13;58.18
55217;BME280;41086;46.736;15.666;2024-02-23T10:10:40;97042.06;;;14.06;57.92
55217;BME280;41086;46.736;15.666;2024-02-23T10:13:08;97035.38;;;14.02;58.09
55217;BME280;41086;46.736;15.666;2024-02-23T10:15:35;97034.28;;;13.79;59.21
55217;BME280;41086;46.736;15.666;2024-02-23T10:18:02;97038.84;;;13.52;60.26
55217;BME280;41086;46.736;15.666;2024-02-23T10:20:29;97039.69;;;13.52;60.99
55217;BME280;41086;46.736;15.666;2024-02-23T10:22:56;97028.00;;;13.45;60.55
55217;BME280;41086;46.736;15.666;2024-02-23T10:25:23;97037.94;;;13.43;60.76
55217;BME280;41086;46.736;15.666;2024-02-23T10:27:50;97029.50;;;13.22;61.66
55217;BME280;41086;46.736;15.666;2024-02-23T10:30:17;97017.97;;;13.13;62.05
55217;BME280;41086;46.736;15.666;2024-02-23T10:32:45;97038.28;;;13.40;61.98
55217;BME280;41086;46.736;15.666;2024-02-23T10:35:16;97038.31;;;13.48;61.70
55217;BME280;41086;46.736;15.666;2024-02-23T10:37:48;97025.66;;;13.42;62.02
55217;BME280;41086;46.736;15.666;2024-02-23T10:40:17;97020.16;;;13.18;62.99
55217;BME280;41086;46.736;15.666;2024-02-23T10:42:46;97022.09;;;13.07;63.81
55217;BME280;41086;46.736;15.666;2024-02-23T10:45:19;97031.56;;;13.10;64.51
55217;BME280;41086;46.736;15.666;2024-02-23T10:47:47;97015.09;;;13.06;64.82
55217;BME280;41086;46.736;15.666;2024-02-23T10:50:14;97025.84;;;12.97;65.55
55217;BME280;41086;46.736;15.666;2024-02-23T10:52:42;97024.06;;;12.79;66.83
55217;BME280;41086;46.736;15.666;2024-02-23T10:55:09;97020.50;;;12.97;67.85
55217;BME280;41086;46.736;15.666;2024-02-23T10:57:39;97018.59;;;13.07;66.47
55217;BME280;41086;46.736;15.666;2024-02-23T11:00:08;97017.19;;;13.21;67.20
55217;BME280;41086;46.736;15.666;2024-02-23T11:02:50;97011.47;;;13.34;66.99
55217;BME280;41086;46.736;15.666;2024-02-23T11:05:19;97004.47;;;13.33;67.02
55217;BME280;41086;46.736;15.666;2024-02-23T11:07:48;96996.00;;;13.37;66.49
55217;BME280;41086;46.736;15.666;2024-02-23T11:10:17;96987.56;;;13.42;67.02
55217;BME280;41086;46.736;15.666;2024-02-23T11:12:45;96999.09;;;13.59;67.28
55217;BME280;41086;46.736;15.666;2024-02-23T11:15:41;96995.75;;;13.57;67.57
55217;BME280;41086;46.736;15.666;2024-02-23T11:18:22;96996.97;;;13.70;66.92
55217;BME280;41086;46.736;15.666;2024-02-23T11:20:55;96987.19;;;13.71;66.82
55217;BME280;41086;46.736;15.666;2024-02-23T11:23:25;96987.22;;;13.79;67.12
55217;BME280;41086;46.736;15.666;2024-02-23T11:26:12;96990.97;;;13.60;66.92
55217;BME280;41086;46.736;15.666;2024-02-23T11:31:12;96980.28;;;13.52;67.85
55217;BME280;41086;46.736;15.666;2024-02-23T11:33:40;96975.47;;;13.56;67.40
55217;BME280;41086;46.736;15.666;2024-02-23T11:36:08;96983.13;;;13.59;68.42
55217;BME280;41086;46.736;15.666;2024-02-23T11:38:35;96951.50;;;13.47;67.94
55217;BME280;41086;46.736;15.666;2024-02-23T11:41:03;96958.00;;;13.53;67.96
55217;BME280;41086;46.736;15.666;2024-02-23T11:43:34;96950.50;;;13.48;67.37
55217;BME280;41086;46.736;15.666;2024-02-23T11:46:01;96956.97;;;13.46;67.62
55217;BME280;41086;46.736;15.666;2024-02-23T11:48:28;96946.53;;;13.52;67.96
55217;BME280;41086;46.736;15.666;2024-02-23T11:50:55;96956.31;;;13.44;68.03
55217;BME280;41086;46.736;15.666;2024-02-23T11:53:21;96956.81;;;13.47;67.89
55217;BME280;41086;46.736;15.666;2024-02-23T11:55:48;96947.81;;;13.48;68.20
55217;BME280;41086;46.736;15.666;2024-02-23T11:58:15;96954.38;;;13.62;68.23
55217;BME280;41086;46.736;15.666;2024-02-23T12:00:44;96946.88;;;13.58;67.57
55217;BME280;41086;46.736;15.666;2024-02-23T12:03:13;96949.38;;;13.59;67.79
55217;BME280;41086;46.736;15.666;2024-02-23T12:05:39;96945.44;;;13.71;67.22
55217;BME280;41086;46.736;15.666;2024-02-23T12:08:06;96934.44;;;13.66;67.02
55217;BME280;41086;46.736;15.666;2024-02-23T12:10:34;96926.44;;;13.66;67.25
55217;BME280;41086;46.736;15.666;2024-02-23T12:13:01;96925.94;;;13.63;67.17
55217;BME280;41086;46.736;15.666;2024-02-23T12:15:27;96919.28;;;13.67;67.15
55217;BME280;41086;46.736;15.666;2024-02-23T12:17:58;96912.28;;;13.58;67.71
55217;BME280;41086;46.736;15.666;2024-02-23T12:20:25;96909.44;;;13.59;68.02
55217;BME280;41086;46.736;15.666;2024-02-23T12:22:54;96908.13;;;13.63;68.10
55217;BME280;41086;46.736;15.666;2024-02-23T12:25:21;96902.97;;;13.62;67.75
55217;BME280;41086;46.736;15.666;2024-02-23T12:27:53;96906.47;;;13.70;68.52
55217;BME280;41086;46.736;15.666;2024-02-23T12:30:20;96902.59;;;13.57;69.02
55217;BME280;41086;46.736;15.666;2024-02-23T12:32:47;96895.25;;;13.42;68.97
55217;BME280;41086;46.736;15.666;2024-02-23T12:35:14;96891.00;;;13.58;68.90
55217;BME280;41086;46.736;15.666;2024-02-23T12:37:43;96884.84;;;13.65;68.71
55217;BME280;41086;46.736;15.666;2024-02-23T12:40:11;96879.22;;;13.77;68.32
55217;BME280;41086;46.736;15.666;2024-02-23T12:42:39;96886.69;;;13.73;68.52
55217;BME280;41086;46.736;15.666;2024-02-23T12:45:06;96875.22;;;13.81;68.45
55217;BME280;41086;46.736;15.666;2024-02-23T12:47:33;96865.41;;;13.97;67.45
55217;BME280;41086;46.736;15.666;2024-02-23T12:50:00;96874.53;;;13.87;66.89
55217;BME280;41086;46.736;15.666;2024-02-23T12:52:27;96855.06;;;13.70;67.09
55217;BME280;41086;46.736;15.666;2024-02-23T12:54:54;96869.72;;;13.74;67.82